Time;durP1;ratioP1;P1;durP2;ratioP2;P2;SDS_P1;SDS_P2;PMS_P1;PMS_P2;Temp;Humidity;BMP_temperature;BMP_pressure;BME280_temperature;BME280_humidity;BME280_pressure;Samples;Min_cycle;Max_cycle;Signal;HPM_P1;HPM_P2
2023/08/22 00:02:23;;;;;;;15.50;14.00;;;;;;;21.21;80.61;99264.15;226610;1274;25367;-74
2023/08/22 00:07:25;;;;;;;16.10;14.20;;;;;;;21.17;80.72;99264.81;226669;1274;22534;-74
2023/08/22 00:12:27;;;;;;;16.20;14.40;;;;;;;21.15;80.85;99258.27;226655;1273;23263;-75
2023/08/22 00:17:30;;;;;;;15.60;14.00;;;;;;;21.11;80.93;99259.34;226867;1273;22534;-74
2023/08/22 00:22:32;;;;;;;15.70;14.10;;;;;;;21.06;81.22;99255.66;226710;1264;22537;-75
2023/08/22 00:27:35;;;;;;;16.00;14.30;;;;;;;21.02;81.13;99260.11;226678;1273;22550;-75
2023/08/22 00:32:37;;;;;;;15.50;13.90;;;;;;;20.97;81.22;99255.34;226746;1273;22634;-74
2023/08/22 00:37:39;;;;;;;16.80;15.00;;;;;;;20.93;81.31;99252.16;226699;1271;22536;-74
2023/08/22 00:42:41;;;;;;;15.20;13.70;;;;;;;20.89;81.46;99251.95;226674;1267;22533;-74
2023/08/22 00:47:44;;;;;;;18.00;16.10;;;;;;;20.85;81.69;99248.79;226721;1271;25456;-75
2023/08/22 00:52:46;;;;;;;16.80;15.20;;;;;;;20.80;81.74;99241.98;226623;1272;22533;-75
2023/08/22 00:57:48;;;;;;;16.40;14.70;;;;;;;20.75;81.85;99242.91;226787;1271;22541;-74
2023/08/22 01:02:50;;;;;;;16.90;15.20;;;;;;;20.71;82.14;99238.90;226856;1274;22548;-75
2023/08/22 01:07:59;;;;;;;18.70;16.90;;;;;;;20.68;82.18;99242.23;226721;1274;22530;-75
2023/08/22 01:13:09;;;;;;;16.90;15.30;;;;;;;20.64;82.45;99239.30;226690;1274;22577;-74
2023/08/22 01:18:14;;;;;;;16.60;14.90;;;;;;;20.60;82.51;99236.20;226758;1273;25370;-75
2023/08/22 01:23:16;;;;;;;15.80;14.20;;;;;;;20.57;82.56;99236.09;226777;1273;22546;-75
2023/08/22 01:28:36;;;;;;;16.40;14.80;;;;;;;20.53;82.56;99224.89;226814;1273;22537;-75
2023/08/22 01:33:51;;;;;;;15.40;13.90;;;;;;;20.49;82.53;99215.36;226796;1270;22595;-75
2023/08/22 01:38:53;;;;;;;15.60;14.10;;;;;;;20.45;82.61;99221.14;226639;1273;22541;-75
2023/08/22 01:43:55;;;;;;;18.20;15.30;;;;;;;20.41;82.82;99214.42;226767;1273;24199;-75
2023/08/22 01:48:57;;;;;;;22.60;16.60;;;;;;;20.41;82.86;99212.12;226914;1272;22535;-75
2023/08/22 01:53:59;;;;;;;22.60;16.30;;;;;;;20.45;83.27;99221.42;226909;1273;22574;-75
2023/08/22 01:59:01;;;;;;;21.30;15.90;;;;;;;20.54;83.43;99218.40;226858;1253;22543;-74
2023/08/22 02:04:04;;;;;;;18.00;15.60;;;;;;;20.61;83.24;99216.23;226968;1273;22541;-75
2023/08/22 02:09:06;;;;;;;20.40;15.80;;;;;;;20.66;83.27;99213.52;226977;1273;22549;-75
2023/08/22 02:14:08;;;;;;;19.80;15.10;;;;;;;20.71;83.09;99216.23;226890;1273;22548;-75
2023/08/22 02:19:10;;;;;;;16.80;14.10;;;;;;;20.75;83.12;99212.98;226769;1273;22530;-75
2023/08/22 02:24:12;;;;;;;17.00;15.00;;;;;;;20.79;83.02;99208.29;226767;1273;22537;-74
2023/08/22 02:29:14;;;;;;;18.70;16.10;;;;;;;20.82;83.06;99210.17;226898;1273;22534;-75
2023/08/22 02:34:16;;;;;;;17.80;15.20;;;;;;;20.84;82.95;99214.73;226793;1273;22963;-74
2023/08/22 02:39:18;;;;;;;18.10;15.80;;;;;;;20.85;82.93;99218.66;226776;1272;22610;-74
2023/08/22 02:44:20;;;;;;;17.50;15.70;;;;;;;20.87;82.94;99222.36;226741;1270;22548;-74
2023/08/22 02:49:22;;;;;;;15.80;14.20;;;;;;;20.89;83.01;99221.33;226795;1273;22546;-74
2023/08/22 02:54:24;;;;;;;15.50;13.90;;;;;;;20.84;82.83;99219.71;226721;1273;22549;-74
2023/08/22 02:59:25;;;;;;;15.30;13.70;;;;;;;20.72;82.75;99214.70;226726;1273;22554;-74
2023/08/22 03:04:27;;;;;;;22.20;15.10;;;;;;;20.66;82.98;99214.84;226713;1273;22560;-75
2023/08/22 03:09:31;;;;;;;17.00;14.50;;;;;;;20.59;83.19;99213.40;226701;1269;22530;-75
2023/08/22 03:14:34;;;;;;;20.40;16.10;;;;;;;20.54;83.38;99211.80;226738;1272;22936;-75
2023/08/22 03:19:36;;;;;;;17.30;15.50;;;;;;;20.51;83.61;99213.13;226846;1273;22537;-74
2023/08/22 03:24:38;;;;;;;16.90;15.30;;;;;;;20.47;83.67;99220.16;226649;1273;22731;-74
2023/08/22 03:29:41;;;;;;;19.00;15.50;;;;;;;20.42;83.92;99220.77;226721;1273;22537;-74
2023/08/22 03:34:43;;;;;;;16.70;14.90;;;;;;;20.38;83.99;99215.60;226700;1273;22537;-74
2023/08/22 03:39:45;;;;;;;16.90;14.10;;;;;;;20.32;83.98;99217.55;226732;1267;22592;-74
2023/08/22 03:44:48;;;;;;;19.80;15.80;;;;;;;20.21;83.75;99220.55;226845;1273;22563;-75
2023/08/22 03:49:50;;;;;;;20.00;15.80;;;;;;;20.14;84.19;99218.98;226864;1273;25312;-74
2023/08/22 03:54:52;;;;;;;20.90;16.80;;;;;;;20.14;84.44;99212.45;226698;1273;22547;-74
2023/08/22 03:59:54;;;;;;;18.50;16.00;;;;;;;20.15;84.48;99215.03;226654;1273;22534;-73
2023/08/22 04:04:56;;;;;;;21.60;17.30;;;;;;;20.15;84.54;99208.64;226628;1273;22606;-74
2023/08/22 04:10:00;;;;;;;20.40;18.20;;;;;;;20.15;84.58;99210.36;226635;1273;22514;-74
2023/08/22 04:15:02;;;;;;;23.50;19.50;;;;;;;20.18;84.72;99210.14;226729;1269;22610;-74
2023/08/22 04:20:07;;;;;;;19.30;16.80;;;;;;;20.20;84.68;99206.79;226743;1270;22563;-74
2023/08/22 04:25:10;;;;;;;22.10;16.80;;;;;;;20.22;84.57;99201.10;226794;1272;22554;-74
2023/08/22 04:30:13;;;;;;;18.10;15.80;;;;;;;20.27;84.57;99199.64;226815;1273;22628;-74
2023/08/22 04:35:15;;;;;;;16.90;15.10;;;;;;;20.33;84.41;99198.07;226855;1256;22551;-74
2023/08/22 04:40:21;;;;;;;21.70;16.00;;;;;;;20.37;84.53;99195.26;226874;1270;22527;-74
2023/08/22 04:45:35;;;;;;;16.40;14.60;;;;;;;20.41;84.43;99197.46;226748;1270;22537;-75
2023/08/22 04:50:38;;;;;;;17.10;15.20;;;;;;;20.46;84.25;99195.45;226850;1272;22568;-75
2023/08/22 04:55:40;;;;;;;18.40;15.20;;;;;;;20.53;84.36;99195.19;226801;1272;22562;-75
2023/08/22 05:00:42;;;;;;;18.00;16.10;;;;;;;20.61;84.45;99200.55;226705;1264;22539;-75
2023/08/22 05:05:44;;;;;;;19.30;16.80;;;;;;;20.70;84.48;99192.31;226716;1270;22579;-75
2023/08/22 05:10:46;;;;;;;18.90;17.00;;;;;;;20.77;84.56;99189.85;226803;1273;22546;-75
2023/08/22 05:15:49;;;;;;;20.60;16.70;;;;;;;20.86;84.51;99192.26;226806;1271;22531;-76
2023/08/22 05:20:52;;;;;;;20.10;18.20;;;;;;;20.97;84.61;99188.71;226809;1272;22543;-75
2023/08/22 05:25:54;;;;;;;19.70;17.70;;;;;;;21.09;84.62;99185.73;226851;1273;22468;-75
2023/08/22 05:30:56;;;;;;;20.90;18.70;;;;;;;21.22;84.58;99184.38;226840;1273;22544;-75
2023/08/22 05:36:00;;;;;;;20.40;18.40;;;;;;;21.36;84.65;99186.63;226879;1273;23274;-75
2023/08/22 05:41:03;;;;;;;21.10;19.00;;;;;;;21.51;84.59;99187.70;226905;1270;22993;-76
2023/08/22 05:46:06;;;;;;;20.00;18.00;;;;;;;21.64;84.49;99184.64;226837;1269;22535;-75
2023/08/22 05:51:08;;;;;;;21.90;19.50;;;;;;;21.79;84.41;99184.83;226874;1257;22531;-79
2023/08/22 05:56:10;;;;;;;20.70;18.70;;;;;;;21.93;84.25;99179.23;226492;1265;22552;-79
2023/08/22 06:01:13;;;;;;;21.10;18.90;;;;;;;22.07;84.09;99184.70;226508;1256;22565;-77
2023/08/22 06:06:15;;;;;;;20.70;18.00;;;;;;;22.23;83.86;99188.58;226396;1272;22587;-77
2023/08/22 06:11:17;;;;;;;19.30;16.80;;;;;;;22.39;83.42;99182.91;226236;1261;24205;-79
2023/08/22 06:16:20;;;;;;;20.40;18.20;;;;;;;22.57;83.38;99182.80;226162;1263;22584;-76
2023/08/22 06:21:25;;;;;;;21.50;19.20;;;;;;;22.77;83.26;99177.02;226162;1273;25596;-77
2023/08/22 06:26:27;;;;;;;22.60;20.40;;;;;;;22.96;82.89;99178.48;226278;1273;22538;-76
2023/08/22 06:31:29;;;;;;;22.60;20.30;;;;;;;23.15;82.74;99183.77;226166;1272;22551;-77
2023/08/22 06:36:32;;;;;;;22.30;20.10;;;;;;;23.32;82.35;99181.88;226246;1258;23457;-77
2023/08/22 06:41:35;;;;;;;22.90;20.70;;;;;;;23.51;82.42;99177.58;226241;1250;22579;-77
2023/08/22 06:46:44;;;;;;;21.30;19.00;;;;;;;23.72;82.02;99180.98;226382;1262;22513;-76
2023/08/22 06:51:46;;;;;;;23.60;21.40;;;;;;;23.95;81.60;99186.95;226525;1272;22494;-77
2023/08/22 06:56:48;;;;;;;22.70;20.30;;;;;;;24.18;80.79;99190.91;226461;1270;22711;-77
2023/08/22 07:01:50;;;;;;;23.40;21.20;;;;;;;24.40;80.35;99190.59;226594;1266;22533;-79
2023/08/22 07:06:52;;;;;;;27.30;24.70;;;;;;;24.65;79.95;99192.63;226583;1272;22562;-76
2023/08/22 07:11:54;;;;;;;24.20;21.70;;;;;;;24.88;79.42;99192.20;226603;1272;23080;-78
2023/08/22 07:16:56;;;;;;;25.20;21.40;;;;;;;25.11;79.44;99189.34;226415;1251;22605;-79
2023/08/22 07:21:58;;;;;;;24.80;22.30;;;;;;;25.32;79.07;99188.21;226375;1272;25333;-78
2023/08/22 07:27:00;;;;;;;25.20;22.60;;;;;;;25.52;78.60;99190.80;226355;1266;22528;-79
2023/08/22 07:32:02;;;;;;;25.60;22.90;;;;;;;25.66;78.20;99185.70;226364;1272;23096;-78
2023/08/22 07:37:04;;;;;;;23.70;21.40;;;;;;;25.81;77.69;99194.67;226488;1266;25312;-76
2023/08/22 07:42:06;;;;;;;22.40;20.30;;;;;;;25.92;77.31;99191.29;226444;1269;24376;-76
2023/08/22 07:47:08;;;;;;;22.10;20.00;;;;;;;26.10;77.26;99192.70;226395;1254;22534;-79
2023/08/22 07:52:10;;;;;;;20.10;18.20;;;;;;;26.26;76.77;99182.11;226336;1266;22535;-74
2023/08/22 07:57:12;;;;;;;19.60;17.70;;;;;;;26.43;76.25;99177.80;226387;1270;22515;-73
2023/08/22 08:02:20;;;;;;;18.80;17.00;;;;;;;26.57;75.39;99170.70;226327;1272;22590;-73
2023/08/22 08:07:22;;;;;;;17.50;16.00;;;;;;;26.74;75.22;99169.42;226574;1270;22657;-73
2023/08/22 08:12:24;;;;;;;17.30;15.70;;;;;;;26.91;74.66;99166.73;226588;1272;22537;-76
2023/08/22 08:17:26;;;;;;;16.40;14.70;;;;;;;27.04;73.78;99168.04;226760;1270;22540;-73
2023/08/22 08:22:28;;;;;;;17.20;15.60;;;;;;;27.11;72.95;99171.45;226648;1260;23182;-74
2023/08/22 08:27:31;;;;;;;15.70;14.30;;;;;;;27.13;72.26;99170.13;226584;1257;22545;-74
2023/08/22 08:32:33;;;;;;;15.50;14.20;;;;;;;27.19;72.15;99167.46;226523;1266;24215;-74
2023/08/22 08:37:35;;;;;;;14.40;13.10;;;;;;;27.26;71.37;99166.69;226576;1253;22557;-73
2023/08/22 08:42:37;;;;;;;15.60;14.10;;;;;;;27.40;71.40;99165.05;226539;1272;25474;-73
2023/08/22 08:47:40;;;;;;;13.90;12.70;;;;;;;27.59;71.12;99155.14;226522;1271;22549;-75
2023/08/22 08:52:45;;;;;;;14.10;12.70;;;;;;;27.81;70.48;99152.21;226501;1271;22597;-75
2023/08/22 08:57:47;;;;;;;13.60;12.30;;;;;;;27.93;69.59;99148.19;226626;1269;22527;-75
2023/08/22 09:02:49;;;;;;;13.20;12.00;;;;;;;28.10;68.89;99149.14;226599;1267;22583;-75
2023/08/22 09:07:51;;;;;;;14.70;13.40;;;;;;;28.23;68.32;99146.15;226179;1254;22640;-76
2023/08/22 09:12:53;;;;;;;13.60;12.50;;;;;;;28.33;67.73;99145.79;225968;1269;22530;-75
2023/08/22 09:17:56;;;;;;;11.60;10.50;;;;;;;28.39;66.70;99145.79;225771;1254;26138;-76
2023/08/22 09:22:58;;;;;;;13.30;12.20;;;;;;;28.57;65.97;99142.31;225816;1266;22921;-75
2023/08/22 09:27:59;;;;;;;11.90;10.90;;;;;;;28.79;65.78;99139.77;225763;1250;22561;-75
2023/08/22 09:33:02;;;;;;;11.60;10.50;;;;;;;28.93;64.29;99134.10;225750;1266;22532;-74
2023/08/22 09:38:08;;;;;;;12.10;11.00;;;;;;;28.99;63.61;99128.61;225863;1251;22521;-77
2023/08/22 09:43:10;;;;;;;11.80;10.50;;;;;;;29.06;63.20;99123.25;225703;1269;22671;-77
2023/08/22 09:48:22;;;;;;;11.30;10.20;;;;;;;29.13;62.43;99118.98;225865;1266;22531;-77
2023/08/22 09:53:28;;;;;;;10.40;9.50;;;;;;;29.23;62.28;99115.27;225761;1270;26303;-77
2023/08/22 09:58:32;;;;;;;9.20;8.50;;;;;;;29.35;61.80;99109.91;225806;1273;22532;-74
2023/08/22 10:03:35;;;;;;;9.00;8.10;;;;;;;29.47;60.66;99106.48;225904;1253;22526;-75
2023/08/22 10:08:41;;;;;;;8.00;7.10;;;;;;;29.59;59.57;99108.71;225755;1251;24285;-78
2023/08/22 10:13:45;;;;;;;7.70;7.00;;;;;;;29.65;58.74;99104.61;225792;1270;22638;-77
2023/08/22 10:18:59;;;;;;;7.50;6.90;;;;;;;29.76;58.45;99099.36;225688;1271;22921;-77
2023/08/22 10:24:01;;;;;;;8.40;7.60;;;;;;;29.96;58.15;99098.27;225629;1266;22534;-76
2023/08/22 10:29:18;;;;;;;7.20;6.60;;;;;;;30.12;57.67;99096.16;225746;1272;22572;-76
2023/08/22 10:34:20;;;;;;;7.10;6.60;;;;;;;30.21;56.45;99087.34;226072;1272;22515;-75
2023/08/22 10:39:39;;;;;;;8.70;6.80;;;;;;;30.33;56.46;99085.40;226316;1266;22530;-75
2023/08/22 10:44:42;;;;;;;8.50;7.70;;;;;;;30.43;56.24;99078.51;226272;1257;22579;-75
2023/08/22 10:49:49;;;;;;;8.20;7.50;;;;;;;30.51;56.04;99069.68;226536;1266;25239;-75
2023/08/22 10:55:13;;;;;;;9.60;8.30;;;;;;;30.57;55.45;99065.70;226521;1269;22536;-74
2023/08/22 11:00:19;;;;;;;8.20;7.50;;;;;;;30.62;55.22;99054.38;226497;1269;24721;-74
2023/08/22 11:05:21;;;;;;;8.40;7.70;;;;;;;30.70;55.39;99051.99;226525;1269;22538;-71
2023/08/22 11:10:25;;;;;;;8.20;7.40;;;;;;;30.84;54.94;99048.59;226493;1266;22547;-71
2023/08/22 11:15:27;;;;;;;8.20;7.50;;;;;;;30.93;54.57;99045.98;226535;1269;22557;-77
2023/08/22 11:20:29;;;;;;;8.40;7.60;;;;;;;31.04;54.66;99048.09;226541;1272;25302;-70
2023/08/22 11:25:31;;;;;;;8.50;7.80;;;;;;;31.15;53.77;99042.35;226469;1269;22548;-71
2023/08/22 11:30:33;;;;;;;8.00;7.40;;;;;;;31.13;53.46;99039.90;226431;1256;23434;-71
2023/08/22 11:35:35;;;;;;;8.70;8.00;;;;;;;31.19;53.33;99037.69;226437;1267;22545;-75
2023/08/22 11:40:42;;;;;;;8.40;7.60;;;;;;;31.21;52.78;99032.30;226473;1267;23453;-71
2023/08/22 11:45:48;;;;;;;9.10;8.30;;;;;;;31.23;52.76;99028.96;226553;1266;24865;-72
2023/08/22 11:50:50;;;;;;;9.10;8.20;;;;;;;31.30;52.86;99012.28;226603;1270;22541;-72
2023/08/22 11:55:55;;;;;;;9.70;8.80;;;;;;;31.43;52.90;99010.17;226458;1272;22564;-71
2023/08/22 12:01:00;;;;;;;10.50;9.50;;;;;;;31.52;52.54;99009.02;226554;1267;22523;-78
2023/08/22 12:06:11;;;;;;;11.20;10.10;;;;;;;31.52;52.45;99007.77;226495;1253;22561;-72
2023/08/22 12:11:24;;;;;;;10.90;9.90;;;;;;;31.49;52.61;99000.60;226508;1267;25299;-71
2023/08/22 12:16:26;;;;;;;10.20;9.30;;;;;;;31.46;52.53;99002.19;226370;1260;22534;-72
2023/08/22 12:21:28;;;;;;;10.20;9.30;;;;;;;31.35;52.58;98996.77;226248;1270;23056;-71
2023/08/22 12:26:30;;;;;;;12.50;9.60;;;;;;;31.18;52.74;98993.49;226278;1270;22674;-73
2023/08/22 12:31:35;;;;;;;10.70;9.70;;;;;;;31.13;52.90;98983.98;226502;1272;23451;-72
2023/08/22 12:36:37;;;;;;;10.00;9.20;;;;;;;31.09;53.04;98979.00;226636;1272;23109;-73
2023/08/22 12:41:39;;;;;;;10.50;9.60;;;;;;;31.26;52.77;98975.73;226529;1250;22545;-73
2023/08/22 12:46:41;;;;;;;10.10;9.30;;;;;;;31.51;52.88;98971.89;226419;1251;25984;-74
2023/08/22 12:51:43;;;;;;;9.70;8.80;;;;;;;31.72;52.62;98971.88;226415;1269;22540;-74
2023/08/22 12:56:45;;;;;;;9.70;8.90;;;;;;;31.85;52.42;98964.17;226430;1269;22553;-74
2023/08/22 13:01:46;;;;;;;10.20;9.30;;;;;;;31.98;52.47;98961.73;226357;1267;22524;-74
2023/08/22 13:06:48;;;;;;;10.50;9.60;;;;;;;32.12;52.13;98951.99;226346;1256;22527;-73
2023/08/22 13:11:50;;;;;;;10.30;9.30;;;;;;;32.11;51.26;98949.84;226515;1259;22533;-74
2023/08/22 13:16:52;;;;;;;10.40;9.50;;;;;;;32.15;52.00;98948.36;226314;1260;22557;-74
2023/08/22 13:21:54;;;;;;;10.30;9.20;;;;;;;32.32;51.63;98943.73;226337;1267;22696;-73
2023/08/22 13:26:56;;;;;;;9.70;8.70;;;;;;;32.43;51.49;98935.58;226394;1258;22533;-73
2023/08/22 13:31:58;;;;;;;9.60;8.80;;;;;;;32.46;50.89;98930.31;226312;1253;22534;-74
2023/08/22 13:37:00;;;;;;;10.40;9.50;;;;;;;32.56;50.75;98923.60;226310;1253;104135;-77
2023/08/22 13:42:02;;;;;;;10.40;9.50;;;;;;;32.59;50.57;98922.23;226457;1251;24757;-72
2023/08/22 13:47:04;;;;;;;10.90;9.90;;;;;;;32.58;51.49;98924.24;226430;1266;22587;-74
2023/08/22 13:52:06;;;;;;;10.50;9.50;;;;;;;32.62;51.11;98919.52;226472;1253;22521;-75
2023/08/22 13:57:09;;;;;;;9.90;9.00;;;;;;;32.66;51.34;98908.81;226573;1269;22515;-85
2023/08/22 14:02:11;;;;;;;9.70;8.90;;;;;;;32.73;50.94;98908.73;226276;1269;22903;-73
2023/08/22 14:07:13;;;;;;;12.10;9.70;;;;;;;32.67;50.23;98904.73;226315;1274;22517;-73
2023/08/22 14:12:15;;;;;;;9.40;8.60;;;;;;;32.48;49.90;98901.05;226546;1272;22561;-73
2023/08/22 14:17:17;;;;;;;9.40;8.60;;;;;;;32.50;50.89;98894.88;226767;1272;22541;-72
2023/08/22 14:22:19;;;;;;;9.80;9.00;;;;;;;32.60;51.02;98887.79;226778;1274;22555;-73
2023/08/22 14:27:21;;;;;;;9.50;8.60;;;;;;;32.60;50.86;98880.29;226657;1272;22565;-73
2023/08/22 14:32:24;;;;;;;9.70;8.40;;;;;;;32.64;50.95;98870.36;226710;1272;25312;-73
2023/08/22 14:37:26;;;;;;;9.60;8.80;;;;;;;32.67;50.78;98867.36;226700;1266;23349;-74
2023/08/22 14:42:28;;;;;;;9.20;8.50;;;;;;;32.73;50.73;98863.61;226692;1272;22544;-73
2023/08/22 14:47:29;;;;;;;9.00;8.10;;;;;;;32.76;50.44;98865.23;226707;1272;22532;-73
2023/08/22 14:52:31;;;;;;;9.00;8.20;;;;;;;32.81;50.57;98859.86;226844;1272;22549;-73
2023/08/22 14:57:33;;;;;;;8.70;8.00;;;;;;;32.93;50.39;98859.01;226639;1263;22544;-73
2023/08/22 15:02:35;;;;;;;8.80;7.90;;;;;;;32.96;50.01;98849.41;226632;1272;22541;-73
2023/08/22 15:07:37;;;;;;;9.30;8.50;;;;;;;32.90;49.83;98848.51;226646;1272;22582;-73
2023/08/22 15:12:39;;;;;;;9.20;8.50;;;;;;;32.88;49.99;98848.33;226761;1272;22534;-73
2023/08/22 15:17:41;;;;;;;9.00;8.30;;;;;;;32.94;49.96;98848.24;226605;1272;22527;-73
2023/08/22 15:22:43;;;;;;;9.00;8.40;;;;;;;32.96;49.89;98844.54;226717;1272;22615;-73
2023/08/22 15:27:48;;;;;;;8.30;7.70;;;;;;;32.96;49.67;98836.55;226760;1270;22536;-73
2023/08/22 15:32:50;;;;;;;8.90;8.00;;;;;;;32.96;49.45;98831.86;226695;1270;22545;-74
2023/08/22 15:37:54;;;;;;;8.90;8.00;;;;;;;32.79;49.62;98831.89;226723;1273;22574;-73
2023/08/22 15:42:58;;;;;;;8.70;7.90;;;;;;;32.47;49.60;98816.09;226662;1273;22530;-73
2023/08/22 15:47:59;;;;;;;9.10;8.30;;;;;;;32.05;49.67;98814.05;226642;1272;22640;-73
2023/08/22 15:53:02;;;;;;;8.90;8.00;;;;;;;31.69;49.95;98808.55;226750;1272;22561;-73
2023/08/22 15:58:04;;;;;;;9.30;8.20;;;;;;;31.46;50.42;98810.45;226674;1274;22530;-73
2023/08/22 16:03:06;;;;;;;8.70;7.80;;;;;;;31.46;51.11;98814.11;226692;1273;22644;-73
2023/08/22 16:08:09;;;;;;;7.90;7.30;;;;;;;31.59;51.08;98812.39;226687;1272;22537;-73
2023/08/22 16:13:11;;;;;;;8.60;7.90;;;;;;;31.65;50.93;98801.13;226668;1272;22679;-73
2023/08/22 16:18:13;;;;;;;8.80;7.90;;;;;;;31.69;51.25;98797.56;226781;1273;22537;-73
2023/08/22 16:23:15;;;;;;;8.30;7.50;;;;;;;31.70;51.05;98787.20;226799;1273;22540;-73
2023/08/22 16:28:17;;;;;;;7.70;7.00;;;;;;;31.55;50.83;98778.42;226859;1274;22537;-73
2023/08/22 16:33:19;;;;;;;8.20;7.50;;;;;;;31.29;51.05;98770.23;226666;1272;22613;-73
2023/08/22 16:38:27;;;;;;;9.20;8.20;;;;;;;31.05;51.49;98764.30;226735;1274;22558;-72
2023/08/22 16:43:29;;;;;;;9.10;8.30;;;;;;;30.90;52.21;98756.61;226705;1271;25315;-72
2023/08/22 16:48:32;;;;;;;9.00;8.10;;;;;;;30.83;52.39;98753.10;226745;1273;22542;-73
2023/08/22 16:53:35;;;;;;;12.20;8.20;;;;;;;30.77;52.63;98754.35;226773;1272;22537;-73
2023/08/22 16:58:41;;;;;;;10.20;8.30;;;;;;;30.66;52.87;98746.96;226703;1273;22534;-73
2023/08/22 17:03:48;;;;;;;10.50;8.20;;;;;;;30.43;53.08;98741.98;226815;1273;22535;-73
2023/08/22 17:08:49;;;;;;;11.90;8.60;;;;;;;30.17;53.38;98743.10;226685;1274;22567;-72
2023/08/22 17:13:51;;;;;;;11.60;9.60;;;;;;;29.89;53.83;98744.95;226754;1273;22541;-73
2023/08/22 17:18:53;;;;;;;10.10;9.10;;;;;;;29.63;54.43;98733.05;226641;1272;24209;-73
2023/08/22 17:23:55;;;;;;;10.10;9.10;;;;;;;29.40;55.14;98772.27;226748;1274;22547;-72
2023/08/22 17:28:57;;;;;;;10.80;9.70;;;;;;;29.18;55.84;98805.10;226707;1274;22567;-73
2023/08/22 17:33:59;;;;;;;10.60;9.20;;;;;;;28.98;56.05;98790.95;226666;1273;22618;-72
2023/08/22 17:39:01;;;;;;;11.20;9.30;;;;;;;28.80;56.61;98783.09;226719;1274;22605;-73
2023/08/22 17:44:03;;;;;;;10.50;9.30;;;;;;;28.59;57.10;98823.58;226646;1273;25433;-73
2023/08/22 17:49:05;;;;;;;12.50;10.50;;;;;;;28.40;57.77;98781.91;226647;1274;23213;-73
2023/08/22 17:54:08;;;;;;;15.50;10.70;;;;;;;28.16;58.54;98775.96;226693;1272;22590;-73
2023/08/22 17:59:13;;;;;;;12.40;10.60;;;;;;;27.92;59.48;98801.55;226713;1273;25343;-73
2023/08/22 18:04:16;;;;;;;15.90;10.50;;;;;;;27.71;60.05;98820.13;226703;1273;22516;-75
2023/08/22 18:09:19;;;;;;;13.10;10.70;;;;;;;27.54;60.62;98803.90;226771;1272;22530;-73
2023/08/22 18:14:21;;;;;;;10.90;4.10;;;;;;;27.13;61.24;98974.48;226638;1274;22540;-73
2023/08/22 18:19:23;;;;;;;9.50;5.40;;;;;;;25.44;65.69;99003.04;226573;1274;22530;-70
2023/08/22 18:24:26;;;;;;;5.00;2.80;;;;;;;23.22;71.51;98958.44;226680;1274;22602;-71
2023/08/22 18:29:28;;;;;;;7.60;4.80;;;;;;;21.37;75.59;98920.95;226704;1273;22921;-72
2023/08/22 18:34:30;;;;;;;5.10;4.10;;;;;;;20.22;77.25;98837.88;226659;1273;24222;-72
2023/08/22 18:39:32;;;;;;;4.70;4.30;;;;;;;19.82;78.71;98798.34;226679;1269;22622;-73
2023/08/22 18:44:34;;;;;;;5.20;4.60;;;;;;;19.75;79.46;98826.44;226888;1273;25350;-72
2023/08/22 18:49:36;;;;;;;6.70;4.80;;;;;;;19.76;79.84;98838.09;226760;1273;22534;-74
2023/08/22 18:54:38;;;;;;;6.70;6.10;;;;;;;19.75;80.14;98846.18;226753;1273;23039;-73
2023/08/22 18:59:40;;;;;;;6.80;6.00;;;;;;;19.74;80.46;98856.04;226777;1257;23411;-74
2023/08/22 19:04:42;;;;;;;6.90;6.20;;;;;;;19.75;81.13;98862.27;226679;1273;22536;-74
2023/08/22 19:09:50;;;;;;;7.30;6.50;;;;;;;19.76;81.48;98856.98;226829;1271;23752;-75
2023/08/22 19:14:52;;;;;;;7.60;6.30;;;;;;;19.76;81.87;98861.74;226829;1272;22558;-75
2023/08/22 19:19:54;;;;;;;7.90;6.90;;;;;;;19.77;82.42;98859.07;226657;1273;25416;-74
2023/08/22 19:24:56;;;;;;;7.80;7.00;;;;;;;19.77;82.63;98847.55;226646;1256;22546;-73
2023/08/22 19:29:58;;;;;;;7.30;6.30;;;;;;;19.74;82.64;98835.45;226703;1273;22599;-74
2023/08/22 19:35:00;;;;;;;9.20;7.80;;;;;;;19.71;82.79;98823.79;226630;1273;22554;-74
2023/08/22 19:40:02;;;;;;;9.40;7.80;;;;;;;19.70;83.15;98809.02;226723;1271;25958;-75
2023/08/22 19:45:04;;;;;;;8.50;7.70;;;;;;;19.71;83.75;98802.71;226662;1273;23420;-74
2023/08/22 19:50:07;;;;;;;9.00;8.10;;;;;;;19.72;84.07;98797.95;226648;1271;25324;-75
2023/08/22 19:55:09;;;;;;;8.80;7.70;;;;;;;19.73;84.04;98809.17;226835;1267;22533;-74
2023/08/22 20:00:14;;;;;;;10.70;9.30;;;;;;;19.75;84.33;98815.13;226954;1272;22548;-73
2023/08/22 20:05:17;;;;;;;11.20;10.10;;;;;;;19.77;84.44;98811.77;226956;1273;22543;-74
2023/08/22 20:10:19;;;;;;;10.20;9.30;;;;;;;19.78;84.68;98817.11;226947;1272;22580;-74
2023/08/22 20:15:21;;;;;;;9.90;9.00;;;;;;;19.78;84.67;98821.98;226932;1273;22534;-74
2023/08/22 20:20:23;;;;;;;10.00;9.10;;;;;;;19.82;85.18;98819.20;226798;1273;22544;-74
2023/08/22 20:25:25;;;;;;;10.30;9.30;;;;;;;19.82;85.24;98814.02;226855;1272;22535;-73
2023/08/22 20:30:28;;;;;;;10.70;9.60;;;;;;;19.82;85.22;98810.05;226760;1273;22536;-73
2023/08/22 20:35:30;;;;;;;10.50;8.70;;;;;;;19.81;85.23;98818.77;226834;1270;22587;-73
2023/08/22 20:40:32;;;;;;;10.80;9.80;;;;;;;19.82;85.26;98835.84;226838;1273;22539;-72
2023/08/22 20:45:34;;;;;;;11.60;10.60;;;;;;;19.82;85.35;98839.59;226870;1250;22534;-72
2023/08/22 20:50:37;;;;;;;11.90;10.80;;;;;;;19.83;85.43;98835.52;226809;1270;22544;-72
2023/08/22 20:55:39;;;;;;;11.60;10.50;;;;;;;19.83;85.67;98852.27;226780;1270;22540;-71
2023/08/22 21:00:41;;;;;;;11.80;10.40;;;;;;;19.82;85.58;98853.75;226835;1272;22527;-72
2023/08/22 21:05:49;;;;;;;12.60;11.10;;;;;;;19.78;85.53;98860.92;226932;1272;22531;-72
2023/08/22 21:10:52;;;;;;;12.50;11.30;;;;;;;19.76;85.74;98861.63;226868;1272;22588;-73
2023/08/22 21:15:54;;;;;;;13.50;12.20;;;;;;;19.75;85.97;98849.98;226818;1272;22530;-73
2023/08/22 21:20:57;;;;;;;12.60;11.20;;;;;;;19.76;86.31;98843.67;226871;1272;22539;-72
2023/08/22 21:25:59;;;;;;;12.30;11.10;;;;;;;19.76;86.37;98855.64;226746;1270;22553;-73
2023/08/22 21:31:02;;;;;;;13.20;12.00;;;;;;;19.73;86.04;98845.30;226821;1273;22534;-73
2023/08/22 21:36:24;;;;;;;16.80;14.60;;;;;;;19.66;85.97;98845.68;226825;1273;22722;-73
2023/08/22 21:41:26;;;;;;;17.10;15.40;;;;;;;19.61;86.25;98856.85;226769;1270;22533;-73
2023/08/22 21:46:29;;;;;;;17.80;16.10;;;;;;;19.58;86.34;98861.01;226816;1272;22529;-73
2023/08/22 21:51:31;;;;;;;17.60;16.00;;;;;;;19.58;86.57;98861.55;226828;1270;22539;-73
2023/08/22 21:56:34;;;;;;;17.30;15.70;;;;;;;19.58;86.90;98864.91;226783;1270;22624;-73
2023/08/22 22:01:36;;;;;;;20.20;18.30;;;;;;;19.56;86.98;98857.88;226898;1272;22522;-73
2023/08/22 22:06:38;;;;;;;27.80;25.20;;;;;;;19.51;87.04;98850.26;226845;1272;22527;-73
2023/08/22 22:11:40;;;;;;;29.70;26.70;;;;;;;19.45;87.06;98857.05;226877;1270;22541;-72
2023/08/22 22:16:42;;;;;;;27.40;24.90;;;;;;;19.42;87.19;98870.09;226838;1270;22540;-73
2023/08/22 22:21:46;;;;;;;26.10;23.80;;;;;;;19.39;87.23;98872.67;226810;1267;22532;-73
2023/08/22 22:26:48;;;;;;;28.30;25.60;;;;;;;19.37;87.28;98887.38;226837;1269;22530;-73
2023/08/22 22:31:50;;;;;;;30.60;27.70;;;;;;;19.39;87.50;98900.75;226850;1270;24566;-73
2023/08/22 22:36:52;;;;;;;31.00;28.20;;;;;;;19.41;87.70;98894.24;226809;1273;22533;-73
2023/08/22 22:41:55;;;;;;;29.40;26.80;;;;;;;19.42;87.79;98890.84;226852;1270;22636;-73
2023/08/22 22:46:57;;;;;;;29.80;27.00;;;;;;;19.46;87.78;98887.35;226930;1272;22554;-72
2023/08/22 22:51:59;;;;;;;30.50;27.60;;;;;;;19.51;87.87;98895.71;226846;1270;22534;-73
2023/08/22 22:57:01;;;;;;;28.80;26.20;;;;;;;19.57;87.85;98894.01;226827;1273;22547;-73
2023/08/22 23:02:06;;;;;;;28.70;25.90;;;;;;;19.64;87.96;98872.29;226936;1272;22547;-73
2023/08/22 23:07:08;;;;;;;27.80;25.20;;;;;;;19.71;88.06;98866.46;226859;1270;22552;-72